sensor_id;sensor_type;location;lat;lon;timestamp;P1;durP1;ratioP1;P2;durP2;ratioP2
13244;SDS011;6689;53.400;12.486;2023-11-22T00:02:21;4.38;;;1.83;;
13244;SDS011;6689;53.400;12.486;2023-11-22T00:04:52;2.80;;;1.55;;
13244;SDS011;6689;53.400;12.486;2023-11-22T00:07:19;4.13;;;1.95;;
13244;SDS011;6689;53.400;12.486;2023-11-22T00:09:46;5.70;;;1.98;;
13244;SDS011;6689;53.400;12.486;2023-11-22T00:12:13;3.63;;;2.40;;
13244;SDS011;6689;53.400;12.486;2023-11-22T00:14:43;4.30;;;1.83;;
13244;SDS011;6689;53.400;12.486;2023-11-22T00:17:12;5.43;;;2.33;;
13244;SDS011;6689;53.400;12.486;2023-11-22T00:19:39;2.88;;;1.45;;
13244;SDS011;6689;53.400;12.486;2023-11-22T00:22:10;3.25;;;1.77;;
13244;SDS011;6689;53.400;12.486;2023-11-22T00:24:38;2.60;;;1.52;;
13244;SDS011;6689;53.400;12.486;2023-11-22T00:27:06;6.05;;;1.80;;
13244;SDS011;6689;53.400;12.486;2023-11-22T00:29:35;2.53;;;1.80;;
13244;SDS011;6689;53.400;12.486;2023-11-22T00:32:02;2.80;;;1.27;;
13244;SDS011;6689;53.400;12.486;2023-11-22T00:34:31;3.38;;;1.73;;
13244;SDS011;6689;53.400;12.486;2023-11-22T00:36:59;4.40;;;1.50;;
13244;SDS011;6689;53.400;12.486;2023-11-22T00:39:26;2.83;;;1.60;;
13244;SDS011;6689;53.400;12.486;2023-11-22T00:41:54;3.10;;;1.63;;
13244;SDS011;6689;53.400;12.486;2023-11-22T00:44:22;2.22;;;1.33;;
13244;SDS011;6689;53.400;12.486;2023-11-22T00:46:51;2.40;;;1.45;;
13244;SDS011;6689;53.400;12.486;2023-11-22T00:49:18;3.30;;;1.50;;
13244;SDS011;6689;53.400;12.486;2023-11-22T00:51:47;4.20;;;1.52;;
13244;SDS011;6689;53.400;12.486;2023-11-22T00:54:15;5.38;;;1.30;;
13244;SDS011;6689;53.400;12.486;2023-11-22T00:56:45;3.95;;;1.23;;
13244;SDS011;6689;53.400;12.486;2023-11-22T00:59:13;4.32;;;1.85;;
13244;SDS011;6689;53.400;12.486;2023-11-22T01:01:42;2.65;;;1.58;;
13244;SDS011;6689;53.400;12.486;2023-11-22T01:04:09;3.55;;;1.30;;
13244;SDS011;6689;53.400;12.486;2023-11-22T01:06:36;3.33;;;1.95;;
13244;SDS011;6689;53.400;12.486;2023-11-22T01:09:07;3.75;;;1.55;;
13244;SDS011;6689;53.400;12.486;2023-11-22T01:11:37;3.53;;;1.95;;
13244;SDS011;6689;53.400;12.486;2023-11-22T01:14:05;3.58;;;1.73;;
13244;SDS011;6689;53.400;12.486;2023-11-22T01:16:32;3.53;;;2.08;;
13244;SDS011;6689;53.400;12.486;2023-11-22T01:18:59;4.05;;;1.98;;
13244;SDS011;6689;53.400;12.486;2023-11-22T01:21:27;4.63;;;1.80;;
13244;SDS011;6689;53.400;12.486;2023-11-22T01:23:56;3.38;;;1.98;;
13244;SDS011;6689;53.400;12.486;2023-11-22T01:26:26;4.18;;;2.42;;
13244;SDS011;6689;53.400;12.486;2023-11-22T01:28:53;5.57;;;2.75;;
13244;SDS011;6689;53.400;12.486;2023-11-22T01:31:21;4.47;;;2.00;;
13244;SDS011;6689;53.400;12.486;2023-11-22T01:33:48;4.28;;;1.90;;
13244;SDS011;6689;53.400;12.486;2023-11-22T01:36:16;4.10;;;2.30;;
13244;SDS011;6689;53.400;12.486;2023-11-22T01:38:43;2.90;;;1.83;;
13244;SDS011;6689;53.400;12.486;2023-11-22T01:41:11;5.00;;;2.00;;
13244;SDS011;6689;53.400;12.486;2023-11-22T01:43:40;4.75;;;2.47;;
13244;SDS011;6689;53.400;12.486;2023-11-22T01:46:08;5.30;;;2.40;;
13244;SDS011;6689;53.400;12.486;2023-11-22T01:48:37;6.05;;;2.08;;
13244;SDS011;6689;53.400;12.486;2023-11-22T01:51:04;6.60;;;2.30;;
13244;SDS011;6689;53.400;12.486;2023-11-22T01:53:33;4.22;;;2.80;;
13244;SDS011;6689;53.400;12.486;2023-11-22T01:56:01;4.82;;;2.05;;
13244;SDS011;6689;53.400;12.486;2023-11-22T01:58:30;4.82;;;2.30;;
13244;SDS011;6689;53.400;12.486;2023-11-22T02:00:59;3.38;;;2.15;;
13244;SDS011;6689;53.400;12.486;2023-11-22T02:03:29;4.05;;;2.28;;
13244;SDS011;6689;53.400;12.486;2023-11-22T02:05:57;4.40;;;2.45;;
13244;SDS011;6689;53.400;12.486;2023-11-22T02:08:25;4.63;;;2.33;;
13244;SDS011;6689;53.400;12.486;2023-11-22T02:10:58;4.90;;;2.30;;
13244;SDS011;6689;53.400;12.486;2023-11-22T02:13:27;4.75;;;1.83;;
13244;SDS011;6689;53.400;12.486;2023-11-22T02:15:54;3.40;;;2.05;;
13244;SDS011;6689;53.400;12.486;2023-11-22T02:18:26;3.42;;;2.03;;
13244;SDS011;6689;53.400;12.486;2023-11-22T02:20:55;4.05;;;2.45;;
13244;SDS011;6689;53.400;12.486;2023-11-22T02:23:24;5.22;;;2.28;;
13244;SDS011;6689;53.400;12.486;2023-11-22T02:25:53;4.47;;;2.00;;
13244;SDS011;6689;53.400;12.486;2023-11-22T02:28:21;4.70;;;2.85;;
13244;SDS011;6689;53.400;12.486;2023-11-22T02:30:48;4.55;;;1.95;;
13244;SDS011;6689;53.400;12.486;2023-11-22T02:33:17;4.05;;;1.60;;
13244;SDS011;6689;53.400;12.486;2023-11-22T02:35:44;6.10;;;2.67;;
13244;SDS011;6689;53.400;12.486;2023-11-22T02:38:12;5.07;;;2.17;;
13244;SDS011;6689;53.400;12.486;2023-11-22T02:40:41;4.78;;;2.10;;
13244;SDS011;6689;53.400;12.486;2023-11-22T02:43:08;3.20;;;1.80;;
13244;SDS011;6689;53.400;12.486;2023-11-22T02:45:36;3.75;;;1.95;;
13244;SDS011;6689;53.400;12.486;2023-11-22T02:48:05;4.93;;;2.22;;
13244;SDS011;6689;53.400;12.486;2023-11-22T02:50:38;4.60;;;2.00;;
13244;SDS011;6689;53.400;12.486;2023-11-22T02:53:08;3.72;;;1.95;;
13244;SDS011;6689;53.400;12.486;2023-11-22T02:55:37;3.08;;;1.92;;
13244;SDS011;6689;53.400;12.486;2023-11-22T02:58:07;5.13;;;2.22;;
13244;SDS011;6689;53.400;12.486;2023-11-22T03:00:36;4.32;;;2.28;;
13244;SDS011;6689;53.400;12.486;2023-11-22T03:03:06;5.22;;;2.42;;
13244;SDS011;6689;53.400;12.486;2023-11-22T03:05:35;4.00;;;2.20;;
13244;SDS011;6689;53.400;12.486;2023-11-22T03:08:03;4.13;;;2.33;;
13244;SDS011;6689;53.400;12.486;2023-11-22T03:10:32;4.13;;;2.08;;
13244;SDS011;6689;53.400;12.486;2023-11-22T03:13:00;4.65;;;2.40;;
13244;SDS011;6689;53.400;12.486;2023-11-22T03:15:30;3.58;;;2.13;;
13244;SDS011;6689;53.400;12.486;2023-11-22T03:17:58;4.55;;;2.35;;
13244;SDS011;6689;53.400;12.486;2023-11-22T03:20:26;6.30;;;1.90;;
13244;SDS011;6689;53.400;12.486;2023-11-22T03:22:54;4.10;;;2.22;;
13244;SDS011;6689;53.400;12.486;2023-11-22T03:25:22;3.42;;;1.90;;
13244;SDS011;6689;53.400;12.486;2023-11-22T03:27:49;5.75;;;2.40;;
13244;SDS011;6689;53.400;12.486;2023-11-22T03:30:17;4.95;;;2.47;;
13244;SDS011;6689;53.400;12.486;2023-11-22T03:32:46;4.18;;;2.30;;
13244;SDS011;6689;53.400;12.486;2023-11-22T03:35:15;3.28;;;2.08;;
13244;SDS011;6689;53.400;12.486;2023-11-22T03:37:43;4.20;;;2.30;;
13244;SDS011;6689;53.400;12.486;2023-11-22T03:40:10;3.15;;;1.70;;
13244;SDS011;6689;53.400;12.486;2023-11-22T03:42:39;2.47;;;1.67;;
13244;SDS011;6689;53.400;12.486;2023-11-22T03:45:08;2.92;;;2.00;;
13244;SDS011;6689;53.400;12.486;2023-11-22T03:47:37;3.65;;;1.70;;
13244;SDS011;6689;53.400;12.486;2023-11-22T03:50:10;4.38;;;2.17;;
13244;SDS011;6689;53.400;12.486;2023-11-22T03:52:37;4.32;;;2.58;;
13244;SDS011;6689;53.400;12.486;2023-11-22T03:55:05;4.03;;;1.83;;
13244;SDS011;6689;53.400;12.486;2023-11-22T03:57:32;2.67;;;1.80;;
13244;SDS011;6689;53.400;12.486;2023-11-22T04:00:00;3.35;;;1.50;;
13244;SDS011;6689;53.400;12.486;2023-11-22T04:02:28;2.70;;;1.52;;
13244;SDS011;6689;53.400;12.486;2023-11-22T04:04:55;2.97;;;1.80;;
13244;SDS011;6689;53.400;12.486;2023-11-22T04:07:24;3.10;;;1.90;;
13244;SDS011;6689;53.400;12.486;2023-11-22T04:09:52;2.70;;;1.73;;
13244;SDS011;6689;53.400;12.486;2023-11-22T04:12:21;5.00;;;1.80;;
13244;SDS011;6689;53.400;12.486;2023-11-22T04:14:50;3.33;;;1.80;;
13244;SDS011;6689;53.400;12.486;2023-11-22T04:17:18;9.40;;;3.75;;
13244;SDS011;6689;53.400;12.486;2023-11-22T04:19:46;2.78;;;1.85;;
13244;SDS011;6689;53.400;12.486;2023-11-22T04:22:14;2.65;;;1.98;;
13244;SDS011;6689;53.400;12.486;2023-11-22T04:24:43;3.00;;;2.05;;
13244;SDS011;6689;53.400;12.486;2023-11-22T04:27:11;3.17;;;1.80;;
13244;SDS011;6689;53.400;12.486;2023-11-22T04:29:38;4.10;;;2.00;;
13244;SDS011;6689;53.400;12.486;2023-11-22T04:32:06;2.53;;;1.52;;
13244;SDS011;6689;53.400;12.486;2023-11-22T04:34:33;3.00;;;1.80;;
13244;SDS011;6689;53.400;12.486;2023-11-22T04:37:01;4.63;;;1.63;;
13244;SDS011;6689;53.400;12.486;2023-11-22T04:39:32;3.60;;;1.88;;
13244;SDS011;6689;53.400;12.486;2023-11-22T04:42:01;2.83;;;1.83;;
13244;SDS011;6689;53.400;12.486;2023-11-22T04:44:29;3.50;;;1.75;;
13244;SDS011;6689;53.400;12.486;2023-11-22T04:46:57;4.05;;;1.88;;
13244;SDS011;6689;53.400;12.486;2023-11-22T04:49:25;4.32;;;2.20;;
13244;SDS011;6689;53.400;12.486;2023-11-22T04:51:53;4.07;;;2.38;;
13244;SDS011;6689;53.400;12.486;2023-11-22T04:54:20;3.13;;;2.00;;
13244;SDS011;6689;53.400;12.486;2023-11-22T04:56:48;3.60;;;2.28;;
13244;SDS011;6689;53.400;12.486;2023-11-22T04:59:18;3.38;;;2.17;;
13244;SDS011;6689;53.400;12.486;2023-11-22T05:01:45;3.45;;;2.08;;
13244;SDS011;6689;53.400;12.486;2023-11-22T05:04:14;4.07;;;2.10;;
13244;SDS011;6689;53.400;12.486;2023-11-22T05:06:41;3.92;;;2.47;;
13244;SDS011;6689;53.400;12.486;2023-11-22T05:09:09;4.20;;;2.45;;
13244;SDS011;6689;53.400;12.486;2023-11-22T05:11:38;8.60;;;2.60;;
13244;SDS011;6689;53.400;12.486;2023-11-22T05:14:06;3.63;;;2.20;;
13244;SDS011;6689;53.400;12.486;2023-11-22T05:16:36;5.57;;;2.80;;
13244;SDS011;6689;53.400;12.486;2023-11-22T05:19:03;5.35;;;2.85;;
13244;SDS011;6689;53.400;12.486;2023-11-22T05:21:31;5.63;;;2.22;;
13244;SDS011;6689;53.400;12.486;2023-11-22T05:23:59;3.47;;;2.00;;
13244;SDS011;6689;53.400;12.486;2023-11-22T05:26:26;3.88;;;2.40;;
13244;SDS011;6689;53.400;12.486;2023-11-22T05:28:56;3.97;;;2.00;;
13244;SDS011;6689;53.400;12.486;2023-11-22T05:31:30;6.75;;;2.50;;
13244;SDS011;6689;53.400;12.486;2023-11-22T05:33:59;3.88;;;1.70;;
13244;SDS011;6689;53.400;12.486;2023-11-22T05:36:26;3.25;;;2.15;;
13244;SDS011;6689;53.400;12.486;2023-11-22T05:38:54;5.18;;;2.05;;
13244;SDS011;6689;53.400;12.486;2023-11-22T05:41:23;6.32;;;1.90;;
13244;SDS011;6689;53.400;12.486;2023-11-22T05:43:51;4.55;;;2.20;;
13244;SDS011;6689;53.400;12.486;2023-11-22T05:46:21;4.72;;;2.13;;
13244;SDS011;6689;53.400;12.486;2023-11-22T05:48:50;3.90;;;2.08;;
13244;SDS011;6689;53.400;12.486;2023-11-22T05:51:19;3.38;;;1.77;;
13244;SDS011;6689;53.400;12.486;2023-11-22T05:53:47;4.05;;;2.05;;
13244;SDS011;6689;53.400;12.486;2023-11-22T05:56:14;3.92;;;2.35;;
13244;SDS011;6689;53.400;12.486;2023-11-22T05:58:42;4.35;;;2.85;;
13244;SDS011;6689;53.400;12.486;2023-11-22T06:01:09;4.53;;;2.33;;
13244;SDS011;6689;53.400;12.486;2023-11-22T06:03:37;2.97;;;1.90;;
13244;SDS011;6689;53.400;12.486;2023-11-22T06:06:06;4.05;;;2.17;;
13244;SDS011;6689;53.400;12.486;2023-11-22T06:08:35;4.00;;;2.53;;
13244;SDS011;6689;53.400;12.486;2023-11-22T06:11:03;5.75;;;2.35;;
13244;SDS011;6689;53.400;12.486;2023-11-22T06:13:30;4.07;;;2.20;;
13244;SDS011;6689;53.400;12.486;2023-11-22T06:15:58;5.80;;;2.45;;
13244;SDS011;6689;53.400;12.486;2023-11-22T06:18:25;5.75;;;2.63;;
13244;SDS011;6689;53.400;12.486;2023-11-22T06:20:57;3.83;;;2.13;;
13244;SDS011;6689;53.400;12.486;2023-11-22T06:23:25;4.93;;;2.38;;
13244;SDS011;6689;53.400;12.486;2023-11-22T06:25:55;5.88;;;2.00;;
13244;SDS011;6689;53.400;12.486;2023-11-22T06:28:22;5.47;;;1.95;;
13244;SDS011;6689;53.400;12.486;2023-11-22T06:30:50;3.40;;;2.10;;
13244;SDS011;6689;53.400;12.486;2023-11-22T06:33:18;5.60;;;2.03;;
13244;SDS011;6689;53.400;12.486;2023-11-22T06:35:45;4.68;;;2.40;;
13244;SDS011;6689;53.400;12.486;2023-11-22T06:38:13;5.03;;;2.33;;
13244;SDS011;6689;53.400;12.486;2023-11-22T06:40:40;2.90;;;2.05;;
13244;SDS011;6689;53.400;12.486;2023-11-22T06:43:09;4.72;;;2.70;;
13244;SDS011;6689;53.400;12.486;2023-11-22T06:45:36;6.00;;;3.28;;
13244;SDS011;6689;53.400;12.486;2023-11-22T06:48:04;5.30;;;2.85;;
13244;SDS011;6689;53.400;12.486;2023-11-22T06:50:32;4.28;;;2.67;;
13244;SDS011;6689;53.400;12.486;2023-11-22T06:53:00;6.45;;;2.97;;
13244;SDS011;6689;53.400;12.486;2023-11-22T06:55:28;4.50;;;3.13;;
13244;SDS011;6689;53.400;12.486;2023-11-22T06:57:58;4.45;;;3.00;;
13244;SDS011;6689;53.400;12.486;2023-11-22T07:00:28;5.57;;;3.00;;
13244;SDS011;6689;53.400;12.486;2023-11-22T07:02:56;4.75;;;2.58;;
13244;SDS011;6689;53.400;12.486;2023-11-22T07:05:23;5.35;;;3.40;;
13244;SDS011;6689;53.400;12.486;2023-11-22T07:07:50;7.50;;;4.18;;
13244;SDS011;6689;53.400;12.486;2023-11-22T07:10:19;9.98;;;5.53;;
13244;SDS011;6689;53.400;12.486;2023-11-22T07:12:47;9.23;;;4.30;;
13244;SDS011;6689;53.400;12.486;2023-11-22T07:15:14;6.93;;;3.22;;
13244;SDS011;6689;53.400;12.486;2023-11-22T07:17:43;5.07;;;3.17;;
13244;SDS011;6689;53.400;12.486;2023-11-22T07:20:10;4.43;;;2.65;;
13244;SDS011;6689;53.400;12.486;2023-11-22T07:22:41;4.57;;;2.47;;
13244;SDS011;6689;53.400;12.486;2023-11-22T07:25:09;3.58;;;2.30;;
13244;SDS011;6689;53.400;12.486;2023-11-22T07:27:43;4.32;;;2.47;;
13244;SDS011;6689;53.400;12.486;2023-11-22T07:30:12;3.67;;;2.13;;
13244;SDS011;6689;53.400;12.486;2023-11-22T07:32:41;6.13;;;2.60;;
13244;SDS011;6689;53.400;12.486;2023-11-22T07:35:13;4.47;;;2.80;;
13244;SDS011;6689;53.400;12.486;2023-11-22T07:37:40;7.18;;;2.42;;
13244;SDS011;6689;53.400;12.486;2023-11-22T07:40:08;2.92;;;2.20;;
13244;SDS011;6689;53.400;12.486;2023-11-22T07:42:38;3.45;;;2.42;;
13244;SDS011;6689;53.400;12.486;2023-11-22T07:45:07;4.60;;;2.22;;
13244;SDS011;6689;53.400;12.486;2023-11-22T07:47:36;5.50;;;2.90;;
13244;SDS011;6689;53.400;12.486;2023-11-22T07:50:09;4.68;;;3.03;;
13244;SDS011;6689;53.400;12.486;2023-11-22T07:52:38;6.28;;;3.00;;
13244;SDS011;6689;53.400;12.486;2023-11-22T07:55:07;5.05;;;3.03;;
13244;SDS011;6689;53.400;12.486;2023-11-22T07:57:35;5.40;;;3.28;;
13244;SDS011;6689;53.400;12.486;2023-11-22T08:00:04;5.93;;;3.33;;
13244;SDS011;6689;53.400;12.486;2023-11-22T08:02:33;8.80;;;3.70;;
13244;SDS011;6689;53.400;12.486;2023-11-22T08:05:04;10.40;;;3.40;;
13244;SDS011;6689;53.400;12.486;2023-11-22T08:07:35;8.63;;;3.60;;
13244;SDS011;6689;53.400;12.486;2023-11-22T08:10:06;5.00;;;3.10;;
13244;SDS011;6689;53.400;12.486;2023-11-22T08:12:45;5.70;;;2.85;;
13244;SDS011;6689;53.400;12.486;2023-11-22T08:15:15;4.95;;;3.05;;
13244;SDS011;6689;53.400;12.486;2023-11-22T08:17:43;4.78;;;2.85;;
13244;SDS011;6689;53.400;12.486;2023-11-22T08:20:10;5.72;;;3.42;;
13244;SDS011;6689;53.400;12.486;2023-11-22T08:22:44;8.93;;;4.00;;
13244;SDS011;6689;53.400;12.486;2023-11-22T08:25:12;6.68;;;4.03;;
13244;SDS011;6689;53.400;12.486;2023-11-22T08:27:41;11.07;;;7.90;;
13244;SDS011;6689;53.400;12.486;2023-11-22T08:30:08;7.93;;;4.55;;
13244;SDS011;6689;53.400;12.486;2023-11-22T08:45:19;6.75;;;4.10;;
13244;SDS011;6689;53.400;12.486;2023-11-22T08:47:47;8.98;;;4.85;;
13244;SDS011;6689;53.400;12.486;2023-11-22T08:50:16;8.52;;;3.58;;
13244;SDS011;6689;53.400;12.486;2023-11-22T08:52:44;5.97;;;3.67;;
13244;SDS011;6689;53.400;12.486;2023-11-22T08:55:12;6.25;;;3.85;;
13244;SDS011;6689;53.400;12.486;2023-11-22T08:57:39;7.00;;;4.20;;
13244;SDS011;6689;53.400;12.486;2023-11-22T09:00:07;5.80;;;4.18;;
13244;SDS011;6689;53.400;12.486;2023-11-22T09:02:37;6.70;;;3.85;;
13244;SDS011;6689;53.400;12.486;2023-11-22T09:05:05;6.32;;;4.18;;
13244;SDS011;6689;53.400;12.486;2023-11-22T09:07:33;6.53;;;4.47;;
13244;SDS011;6689;53.400;12.486;2023-11-22T09:10:01;8.00;;;4.15;;
13244;SDS011;6689;53.400;12.486;2023-11-22T09:12:35;7.22;;;4.10;;
13244;SDS011;6689;53.400;12.486;2023-11-22T09:15:04;6.32;;;3.85;;
13244;SDS011;6689;53.400;12.486;2023-11-22T09:17:34;12.05;;;5.30;;
13244;SDS011;6689;53.400;12.486;2023-11-22T09:20:08;6.75;;;4.55;;
13244;SDS011;6689;53.400;12.486;2023-11-22T09:22:37;8.95;;;4.97;;
13244;SDS011;6689;53.400;12.486;2023-11-22T09:25:13;7.78;;;4.35;;
13244;SDS011;6689;53.400;12.486;2023-11-22T09:27:41;7.65;;;4.50;;
13244;SDS011;6689;53.400;12.486;2023-11-22T09:30:12;7.22;;;4.47;;
13244;SDS011;6689;53.400;12.486;2023-11-22T09:32:45;10.05;;;6.53;;
13244;SDS011;6689;53.400;12.486;2023-11-22T09:35:14;8.25;;;4.70;;
13244;SDS011;6689;53.400;12.486;2023-11-22T09:37:41;6.10;;;4.32;;
13244;SDS011;6689;53.400;12.486;2023-11-22T09:40:10;8.98;;;4.70;;
13244;SDS011;6689;53.400;12.486;2023-11-22T09:42:39;7.45;;;4.55;;
13244;SDS011;6689;53.400;12.486;2023-11-22T09:45:07;9.40;;;4.70;;
13244;SDS011;6689;53.400;12.486;2023-11-22T09:47:35;8.05;;;4.32;;
13244;SDS011;6689;53.400;12.486;2023-11-22T09:50:05;5.55;;;3.90;;
13244;SDS011;6689;53.400;12.486;2023-11-22T09:52:40;7.00;;;3.95;;
13244;SDS011;6689;53.400;12.486;2023-11-22T09:55:09;5.55;;;3.50;;
13244;SDS011;6689;53.400;12.486;2023-11-22T09:57:38;8.13;;;3.85;;
13244;SDS011;6689;53.400;12.486;2023-11-22T10:00:07;5.65;;;3.83;;
13244;SDS011;6689;53.400;12.486;2023-11-22T10:02:39;5.43;;;3.65;;
13244;SDS011;6689;53.400;12.486;2023-11-22T10:05:07;7.43;;;4.28;;
13244;SDS011;6689;53.400;12.486;2023-11-22T10:07:34;6.40;;;3.50;;
13244;SDS011;6689;53.400;12.486;2023-11-22T10:10:05;9.30;;;4.07;;
13244;SDS011;6689;53.400;12.486;2023-11-22T10:12:35;7.53;;;3.83;;
13244;SDS011;6689;53.400;12.486;2023-11-22T10:15:11;7.80;;;4.07;;
13244;SDS011;6689;53.400;12.486;2023-11-22T10:17:41;6.47;;;3.63;;
13244;SDS011;6689;53.400;12.486;2023-11-22T10:20:21;5.90;;;4.15;;
13244;SDS011;6689;53.400;12.486;2023-11-22T10:22:51;7.43;;;5.00;;
13244;SDS011;6689;53.400;12.486;2023-11-22T10:25:22;6.53;;;3.85;;
13244;SDS011;6689;53.400;12.486;2023-11-22T10:27:49;7.78;;;3.92;;
13244;SDS011;6689;53.400;12.486;2023-11-22T10:30:17;8.32;;;4.90;;
13244;SDS011;6689;53.400;12.486;2023-11-22T10:32:45;7.50;;;4.38;;
13244;SDS011;6689;53.400;12.486;2023-11-22T10:35:13;5.97;;;3.97;;
13244;SDS011;6689;53.400;12.486;2023-11-22T10:37:41;6.13;;;3.80;;
13244;SDS011;6689;53.400;12.486;2023-11-22T10:40:11;6.97;;;4.60;;
13244;SDS011;6689;53.400;12.486;2023-11-22T10:42:42;5.80;;;4.10;;
13244;SDS011;6689;53.400;12.486;2023-11-22T10:45:11;8.85;;;3.78;;
13244;SDS011;6689;53.400;12.486;2023-11-22T10:47:40;7.95;;;4.82;;
13244;SDS011;6689;53.400;12.486;2023-11-22T10:50:10;8.48;;;4.45;;
13244;SDS011;6689;53.400;12.486;2023-11-22T10:52:38;6.20;;;4.13;;
13244;SDS011;6689;53.400;12.486;2023-11-22T10:55:11;6.00;;;3.60;;
13244;SDS011;6689;53.400;12.486;2023-11-22T10:57:45;7.28;;;4.03;;
13244;SDS011;6689;53.400;12.486;2023-11-22T11:00:16;7.20;;;4.55;;
13244;SDS011;6689;53.400;12.486;2023-11-22T11:02:50;7.82;;;4.47;;
13244;SDS011;6689;53.400;12.486;2023-11-22T11:05:24;7.28;;;4.03;;
13244;SDS011;6689;53.400;12.486;2023-11-22T11:07:59;8.32;;;4.32;;
13244;SDS011;6689;53.400;12.486;2023-11-22T11:10:31;6.75;;;4.47;;
13244;SDS011;6689;53.400;12.486;2023-11-22T11:13:02;7.93;;;4.90;;
13244;SDS011;6689;53.400;12.486;2023-11-22T11:15:30;6.65;;;4.22;;
13244;SDS011;6689;53.400;12.486;2023-11-22T11:17:59;6.18;;;4.20;;
13244;SDS011;6689;53.400;12.486;2023-11-22T11:20:31;5.30;;;3.75;;
13244;SDS011;6689;53.400;12.486;2023-11-22T11:23:01;6.38;;;3.58;;
13244;SDS011;6689;53.400;12.486;2023-11-22T11:25:30;6.13;;;4.15;;
13244;SDS011;6689;53.400;12.486;2023-11-22T11:27:59;7.10;;;4.43;;
13244;SDS011;6689;53.400;12.486;2023-11-22T11:30:46;7.20;;;3.85;;
13244;SDS011;6689;53.400;12.486;2023-11-22T11:33:14;8.27;;;3.75;;
13244;SDS011;6689;53.400;12.486;2023-11-22T11:35:44;6.25;;;3.55;;
13244;SDS011;6689;53.400;12.486;2023-11-22T11:38:13;6.35;;;3.70;;
13244;SDS011;6689;53.400;12.486;2023-11-22T11:40:42;6.72;;;3.85;;
13244;SDS011;6689;53.400;12.486;2023-11-22T11:43:12;5.95;;;3.67;;
13244;SDS011;6689;53.400;12.486;2023-11-22T11:45:39;5.00;;;3.10;;
13244;SDS011;6689;53.400;12.486;2023-11-22T11:48:13;5.32;;;3.53;;
13244;SDS011;6689;53.400;12.486;2023-11-22T11:50:41;4.05;;;3.25;;
13244;SDS011;6689;53.400;12.486;2023-11-22T11:53:09;5.60;;;3.38;;
13244;SDS011;6689;53.400;12.486;2023-11-22T11:55:37;8.68;;;3.05;;
13244;SDS011;6689;53.400;12.486;2023-11-22T11:58:04;5.53;;;3.60;;
13244;SDS011;6689;53.400;12.486;2023-11-22T12:00:34;4.38;;;3.15;;
13244;SDS011;6689;53.400;12.486;2023-11-22T12:03:05;5.95;;;3.40;;
13244;SDS011;6689;53.400;12.486;2023-11-22T12:05:38;5.60;;;3.45;;
13244;SDS011;6689;53.400;12.486;2023-11-22T12:08:05;5.72;;;3.55;;
13244;SDS011;6689;53.400;12.486;2023-11-22T12:10:34;6.00;;;3.88;;
13244;SDS011;6689;53.400;12.486;2023-11-22T12:13:02;7.57;;;4.70;;
13244;SDS011;6689;53.400;12.486;2023-11-22T12:15:29;7.65;;;4.35;;
13244;SDS011;6689;53.400;12.486;2023-11-22T12:17:58;6.88;;;4.43;;
13244;SDS011;6689;53.400;12.486;2023-11-22T12:20:26;7.70;;;4.97;;
13244;SDS011;6689;53.400;12.486;2023-11-22T12:22:58;6.60;;;4.45;;
13244;SDS011;6689;53.400;12.486;2023-11-22T12:25:26;6.60;;;4.80;;
13244;SDS011;6689;53.400;12.486;2023-11-22T12:27:54;8.32;;;5.03;;
13244;SDS011;6689;53.400;12.486;2023-11-22T12:30:30;5.55;;;4.22;;
13244;SDS011;6689;53.400;12.486;2023-11-22T12:33:01;9.27;;;4.40;;
13244;SDS011;6689;53.400;12.486;2023-11-22T12:35:30;9.38;;;5.25;;
13244;SDS011;6689;53.400;12.486;2023-11-22T12:38:05;6.15;;;4.80;;
13244;SDS011;6689;53.400;12.486;2023-11-22T12:40:33;10.23;;;5.82;;
13244;SDS011;6689;53.400;12.486;2023-11-22T12:43:01;9.52;;;6.63;;
13244;SDS011;6689;53.400;12.486;2023-11-22T12:45:30;11.15;;;6.50;;
13244;SDS011;6689;53.400;12.486;2023-11-22T12:48:10;10.18;;;6.45;;
13244;SDS011;6689;53.400;12.486;2023-11-22T12:50:47;8.75;;;6.30;;
13244;SDS011;6689;53.400;12.486;2023-11-22T12:53:16;10.30;;;6.70;;
13244;SDS011;6689;53.400;12.486;2023-11-22T12:55:46;8.82;;;6.47;;
13244;SDS011;6689;53.400;12.486;2023-11-22T12:58:14;11.13;;;6.88;;
13244;SDS011;6689;53.400;12.486;2023-11-22T13:00:44;10.63;;;7.38;;
13244;SDS011;6689;53.400;12.486;2023-11-22T13:03:11;9.18;;;6.55;;
13244;SDS011;6689;53.400;12.486;2023-11-22T13:05:40;10.85;;;7.57;;
13244;SDS011;6689;53.400;12.486;2023-11-22T13:08:09;10.38;;;7.00;;
13244;SDS011;6689;53.400;12.486;2023-11-22T13:10:40;10.10;;;6.32;;
13244;SDS011;6689;53.400;12.486;2023-11-22T13:13:11;9.38;;;5.60;;
13244;SDS011;6689;53.400;12.486;2023-11-22T13:15:39;7.85;;;5.05;;
13244;SDS011;6689;53.400;12.486;2023-11-22T13:18:09;6.28;;;4.25;;
13244;SDS011;6689;53.400;12.486;2023-11-22T13:20:37;7.85;;;4.10;;
13244;SDS011;6689;53.400;12.486;2023-11-22T13:23:06;7.93;;;3.63;;
13244;SDS011;6689;53.400;12.486;2023-11-22T13:25:34;5.13;;;3.70;;
13244;SDS011;6689;53.400;12.486;2023-11-22T13:28:03;7.15;;;3.55;;
13244;SDS011;6689;53.400;12.486;2023-11-22T13:30:31;6.55;;;3.92;;
13244;SDS011;6689;53.400;12.486;2023-11-22T13:32:58;5.32;;;3.75;;
13244;SDS011;6689;53.400;12.486;2023-11-22T13:35:26;7.35;;;4.38;;
13244;SDS011;6689;53.400;12.486;2023-11-22T13:37:56;6.63;;;3.83;;
13244;SDS011;6689;53.400;12.486;2023-11-22T13:40:24;6.70;;;4.63;;
13244;SDS011;6689;53.400;12.486;2023-11-22T13:42:55;6.75;;;4.18;;
13244;SDS011;6689;53.400;12.486;2023-11-22T13:45:27;6.13;;;4.05;;
13244;SDS011;6689;53.400;12.486;2023-11-22T13:47:54;5.55;;;3.55;;
13244;SDS011;6689;53.400;12.486;2023-11-22T13:50:26;5.55;;;3.42;;
13244;SDS011;6689;53.400;12.486;2023-11-22T13:52:54;6.90;;;4.25;;
13244;SDS011;6689;53.400;12.486;2023-11-22T13:55:23;6.90;;;4.43;;
13244;SDS011;6689;53.400;12.486;2023-11-22T13:57:51;7.43;;;4.68;;
13244;SDS011;6689;53.400;12.486;2023-11-22T14:00:20;6.70;;;4.30;;
13244;SDS011;6689;53.400;12.486;2023-11-22T14:02:53;6.07;;;4.32;;
13244;SDS011;6689;53.400;12.486;2023-11-22T14:05:22;5.72;;;4.18;;
13244;SDS011;6689;53.400;12.486;2023-11-22T14:07:49;5.90;;;3.63;;
13244;SDS011;6689;53.400;12.486;2023-11-22T14:10:17;6.30;;;3.63;;
13244;SDS011;6689;53.400;12.486;2023-11-22T14:12:47;6.30;;;4.25;;
13244;SDS011;6689;53.400;12.486;2023-11-22T14:15:15;8.18;;;4.10;;
13244;SDS011;6689;53.400;12.486;2023-11-22T14:17:43;5.93;;;4.35;;
13244;SDS011;6689;53.400;12.486;2023-11-22T14:20:16;6.25;;;3.80;;
13244;SDS011;6689;53.400;12.486;2023-11-22T14:22:43;6.88;;;3.95;;
13244;SDS011;6689;53.400;12.486;2023-11-22T14:25:11;6.80;;;4.05;;
13244;SDS011;6689;53.400;12.486;2023-11-22T14:27:41;5.07;;;3.72;;
13244;SDS011;6689;53.400;12.486;2023-11-22T14:30:09;5.70;;;4.35;;
13244;SDS011;6689;53.400;12.486;2023-11-22T14:32:40;6.70;;;4.15;;
13244;SDS011;6689;53.400;12.486;2023-11-22T14:35:08;13.55;;;4.22;;
13244;SDS011;6689;53.400;12.486;2023-11-22T14:37:40;7.03;;;3.45;;
13244;SDS011;6689;53.400;12.486;2023-11-22T14:40:08;6.55;;;3.55;;
13244;SDS011;6689;53.400;12.486;2023-11-22T14:42:39;5.88;;;4.18;;
13244;SDS011;6689;53.400;12.486;2023-11-22T14:45:07;6.93;;;3.85;;
13244;SDS011;6689;53.400;12.486;2023-11-22T14:47:34;6.18;;;4.20;;
13244;SDS011;6689;53.400;12.486;2023-11-22T14:50:02;5.78;;;3.70;;
13244;SDS011;6689;53.400;12.486;2023-11-22T14:52:31;5.90;;;3.95;;
13244;SDS011;6689;53.400;12.486;2023-11-22T14:55:00;5.15;;;4.15;;
13244;SDS011;6689;53.400;12.486;2023-11-22T14:57:29;8.68;;;4.60;;
13244;SDS011;6689;53.400;12.486;2023-11-22T14:59:57;10.15;;;3.90;;
13244;SDS011;6689;53.400;12.486;2023-11-22T15:02:26;6.65;;;4.05;;
13244;SDS011;6689;53.400;12.486;2023-11-22T15:04:53;7.20;;;4.18;;
13244;SDS011;6689;53.400;12.486;2023-11-22T15:07:21;7.07;;;4.22;;
13244;SDS011;6689;53.400;12.486;2023-11-22T15:09:49;5.70;;;4.05;;
13244;SDS011;6689;53.400;12.486;2023-11-22T15:12:20;5.85;;;3.88;;